createdAt,value
2022-10-28T00:01:24.841Z,96326.47
2022-10-28T00:03:55.224Z,96341.81
2022-10-28T00:06:25.381Z,96323.47
2022-10-28T00:08:54.118Z,96273.75
2022-10-28T00:11:26.036Z,96317.50
2022-10-28T00:13:55.089Z,96313.44
2022-10-28T00:16:25.059Z,96318.53
2022-10-28T00:18:54.330Z,96287.47
2022-10-28T00:21:25.143Z,96306.97
2022-10-28T00:23:54.016Z,96319.97
2022-10-28T00:26:25.964Z,96311.31
2022-10-28T00:28:56.580Z,96313.41
2022-10-28T00:31:28.169Z,96296.22
2022-10-28T00:33:56.963Z,96320.16
2022-10-28T00:36:28.089Z,96316.94
2022-10-28T00:38:57.666Z,96292.53
2022-10-28T00:41:29.019Z,96316.16
2022-10-28T00:43:59.600Z,96312.53
2022-10-28T00:46:32.044Z,96310.34
2022-10-28T00:49:04.226Z,96303.34
2022-10-28T00:51:35.188Z,96316.19
2022-10-28T00:54:05.903Z,96302.03
2022-10-28T00:56:42.089Z,96292.19
2022-10-28T00:59:15.000Z,96287.41
2022-10-28T01:01:43.613Z,96304.66
2022-10-28T01:04:13.360Z,96312.47
2022-10-28T01:06:43.132Z,96239.56
2022-10-28T01:09:11.541Z,96311.00
2022-10-28T01:11:56.219Z,96308.19
2022-10-28T01:14:43.820Z,96299.00
2022-10-28T01:17:29.091Z,96310.53
2022-10-28T01:20:37.668Z,96305.75
2022-10-28T01:23:16.679Z,96306.34
2022-10-28T01:26:04.886Z,96308.81
2022-10-28T01:29:05.428Z,96281.06
2022-10-28T01:31:42.968Z,96315.03
2022-10-28T01:34:20.227Z,96310.34
2022-10-28T01:36:59.052Z,96267.56
2022-10-28T01:39:34.428Z,96312.66
2022-10-28T01:42:15.687Z,96307.38
2022-10-28T01:44:50.431Z,96313.75
2022-10-28T01:47:24.044Z,96295.97
2022-10-28T01:50:00.290Z,96294.06
2022-10-28T01:52:31.886Z,96307.88
2022-10-28T01:55:04.687Z,96273.41
2022-10-28T01:57:36.561Z,96305.78
2022-10-28T02:00:06.391Z,96301.25
2022-10-28T02:02:38.982Z,96284.84
2022-10-28T02:05:29.289Z,96303.59
2022-10-28T02:08:05.716Z,96298.59
2022-10-28T02:10:38.586Z,96264.59
2022-10-28T02:13:12.449Z,96281.22
2022-10-28T02:15:48.175Z,96287.75
2022-10-28T02:18:28.429Z,96281.13
2022-10-28T02:21:03.807Z,96289.47
2022-10-28T02:23:44.778Z,96214.63
2022-10-28T02:26:22.130Z,96281.50
2022-10-28T02:28:56.483Z,96267.88
2022-10-28T02:31:28.171Z,96288.78
2022-10-28T02:34:02.784Z,96290.28
2022-10-28T02:36:36.524Z,96209.09
2022-10-28T02:39:06.044Z,96289.03
2022-10-28T02:41:41.273Z,96295.44
2022-10-28T02:44:12.985Z,96236.69
2022-10-28T02:46:44.896Z,96289.44
2022-10-28T02:49:16.188Z,96298.94
2022-10-28T02:51:48.101Z,96255.38
2022-10-28T02:54:19.137Z,96240.91
2022-10-28T02:56:53.120Z,96284.94
2022-10-28T02:59:21.696Z,96230.72
2022-10-28T03:01:50.482Z,96262.13
2022-10-28T03:04:20.480Z,96283.78
2022-10-28T03:06:48.868Z,96213.56
2022-10-28T03:09:17.397Z,96273.50
2022-10-28T03:11:45.722Z,96267.47
2022-10-28T03:14:15.440Z,96237.81
2022-10-28T03:16:43.978Z,96256.44
2022-10-28T03:19:12.686Z,96253.97
2022-10-28T03:21:42.495Z,96244.25
2022-10-28T03:24:10.994Z,96215.97
2022-10-28T03:26:39.411Z,96200.41
2022-10-28T03:29:07.889Z,96257.88
2022-10-28T03:31:36.289Z,96195.03
2022-10-28T03:34:04.744Z,96254.41
2022-10-28T03:36:33.185Z,96246.84
2022-10-28T03:39:03.490Z,96231.84
2022-10-28T03:41:32.095Z,96256.16
2022-10-28T03:44:00.812Z,96156.03
2022-10-28T03:46:31.077Z,96167.09
2022-10-28T03:49:02.024Z,96229.19
2022-10-28T03:51:30.468Z,96244.84
2022-10-28T03:53:58.882Z,96255.50
2022-10-28T03:56:28.655Z,96237.34
2022-10-28T03:58:57.049Z,96256.53
2022-10-28T04:01:26.036Z,96262.00
2022-10-28T04:03:54.540Z,96258.81
2022-10-28T04:06:23.017Z,96240.38
2022-10-28T04:08:51.496Z,96251.75
2022-10-28T04:11:20.186Z,96261.63
2022-10-28T04:13:49.963Z,96269.63
2022-10-28T04:16:18.467Z,96260.41
2022-10-28T04:18:46.881Z,96280.25
2022-10-28T04:21:15.214Z,96285.72
2022-10-28T04:23:44.299Z,96274.25
2022-10-28T04:26:12.737Z,96264.72
2022-10-28T04:28:41.184Z,96282.34
2022-10-28T04:31:12.379Z,96288.88
2022-10-28T04:33:40.768Z,96220.78
2022-10-28T04:36:09.506Z,96280.44
2022-10-28T04:38:37.915Z,96288.13
2022-10-28T04:41:06.583Z,96281.66
2022-10-28T04:43:34.943Z,96287.91
2022-10-28T04:46:06.230Z,96264.41
2022-10-28T04:48:36.664Z,96279.31
2022-10-28T04:51:05.229Z,96264.69
2022-10-28T04:53:33.651Z,96279.47
2022-10-28T04:56:02.037Z,96280.88
2022-10-28T04:58:30.754Z,96281.59
2022-10-28T05:00:59.086Z,96287.53
2022-10-28T05:03:27.552Z,96295.38
2022-10-28T05:05:57.367Z,96297.09
2022-10-28T05:08:25.798Z,95957.25
2022-10-28T05:10:54.348Z,96291.13
2022-10-28T05:13:22.826Z,96286.22
2022-10-28T05:15:51.599Z,96258.81
2022-10-28T05:18:20.289Z,96295.03
2022-10-28T05:20:52.966Z,96300.19
2022-10-28T05:23:25.891Z,96305.81
2022-10-28T05:25:58.328Z,96292.41
2022-10-28T05:28:26.718Z,96295.25
2022-10-28T05:30:55.011Z,96297.50
2022-10-28T05:33:23.947Z,96303.88
2022-10-28T05:35:52.690Z,96294.94
2022-10-28T05:38:22.548Z,96294.53
2022-10-28T05:40:50.844Z,96282.84
2022-10-28T05:43:19.290Z,96288.53
2022-10-28T05:45:54.257Z,96285.72
2022-10-28T05:48:22.944Z,96300.13
2022-10-28T05:50:51.530Z,96251.41
2022-10-28T05:53:19.956Z,96296.50
2022-10-28T05:55:50.050Z,96292.91
2022-10-28T05:58:18.706Z,96277.25
2022-10-28T06:00:47.048Z,96303.66
2022-10-28T06:03:15.410Z,96296.78
2022-10-28T06:05:46.288Z,96296.78
2022-10-28T06:08:15.576Z,96302.25
2022-10-28T06:10:55.343Z,96285.91
2022-10-28T06:13:24.362Z,96309.44
2022-10-28T06:15:53.411Z,96308.25
2022-10-28T06:18:22.534Z,96303.53
2022-10-28T06:20:55.254Z,96302.59
2022-10-28T06:23:24.512Z,96306.56
2022-10-28T06:25:58.945Z,96301.41
2022-10-28T06:28:28.194Z,96283.16
2022-10-28T06:31:02.147Z,96302.97
2022-10-28T06:33:31.764Z,96301.75
2022-10-28T06:36:00.982Z,96276.75
2022-10-28T06:38:30.123Z,96291.81
2022-10-28T06:41:00.043Z,96306.78
2022-10-28T06:43:28.529Z,96302.38
2022-10-28T06:46:00.837Z,96314.66
2022-10-28T06:48:31.125Z,96287.03
2022-10-28T06:50:59.918Z,96305.59
2022-10-28T06:53:28.417Z,96298.19
2022-10-28T06:55:58.566Z,96293.31
2022-10-28T06:58:28.816Z,96304.56
2022-10-28T07:00:57.652Z,96289.38
2022-10-28T07:03:26.111Z,96280.41
2022-10-28T07:05:54.546Z,96270.38
2022-10-28T07:08:22.878Z,96257.31
2022-10-28T07:10:58.009Z,96187.25
2022-10-28T07:13:28.736Z,96251.50
2022-10-28T07:15:58.643Z,96189.69
2022-10-28T07:18:28.884Z,96260.53
2022-10-28T07:20:59.969Z,96262.66
2022-10-28T07:23:28.474Z,96256.28
2022-10-28T07:25:58.048Z,96208.69
2022-10-28T07:28:29.025Z,96253.47
2022-10-28T07:31:01.934Z,96258.84
2022-10-28T07:33:30.443Z,96266.31
2022-10-28T07:35:58.725Z,96256.03
2022-10-28T07:38:27.300Z,96226.34
2022-10-28T07:40:55.665Z,96234.25
2022-10-28T07:43:24.390Z,96270.41
2022-10-28T07:45:59.158Z,96267.06
2022-10-28T07:48:27.726Z,96274.47
2022-10-28T07:50:56.082Z,96263.03
2022-10-28T07:53:27.809Z,96260.31
2022-10-28T07:55:58.590Z,96224.59
2022-10-28T07:58:27.187Z,96247.84
2022-10-28T08:00:56.282Z,96269.09
2022-10-28T08:03:34.607Z,96268.09
2022-10-28T08:06:09.703Z,96250.00
2022-10-28T08:08:38.755Z,96263.25
2022-10-28T08:11:11.665Z,96161.72
2022-10-28T08:13:40.317Z,96123.16
2022-10-28T08:16:09.879Z,96230.69
2022-10-28T08:18:40.844Z,96250.78
2022-10-28T08:21:11.391Z,96241.38
2022-10-28T08:23:39.798Z,96241.28
2022-10-28T08:26:08.253Z,96238.25
2022-10-28T08:28:36.668Z,96248.34
2022-10-28T08:31:09.594Z,96243.09
2022-10-28T08:33:41.543Z,96220.59
2022-10-28T08:36:11.915Z,96231.81
2022-10-28T08:38:45.289Z,96243.19
2022-10-28T08:41:28.978Z,96209.59
2022-10-28T08:44:08.002Z,96236.13
2022-10-28T08:46:51.885Z,96223.81
2022-10-28T08:49:23.747Z,96229.44
2022-10-28T08:51:56.830Z,96084.00
2022-10-28T08:54:31.909Z,96228.53
2022-10-28T08:57:02.858Z,96228.22
2022-10-28T08:59:35.268Z,96239.88
2022-10-28T09:02:13.319Z,96222.88
2022-10-28T09:04:44.842Z,96214.41
2022-10-28T09:07:18.133Z,96204.81
2022-10-28T09:09:47.095Z,96237.31
2022-10-28T09:12:29.019Z,96237.22
2022-10-28T09:15:14.175Z,96244.66
2022-10-28T09:17:54.128Z,96242.13
2022-10-28T09:20:34.815Z,96233.50
2022-10-28T09:23:11.850Z,96240.16
2022-10-28T09:25:49.241Z,96243.38
2022-10-28T09:28:29.909Z,96215.91
2022-10-28T09:31:07.182Z,96239.28
2022-10-28T09:33:58.484Z,96238.03
2022-10-28T09:36:34.082Z,96238.25
2022-10-28T09:39:05.468Z,96243.13
2022-10-28T09:41:38.414Z,96243.16
2022-10-28T09:44:15.265Z,96235.97
2022-10-28T09:46:43.841Z,96237.78
2022-10-28T09:49:18.134Z,96242.78
2022-10-28T09:51:54.157Z,96223.31
2022-10-28T09:54:32.408Z,96243.66
2022-10-28T09:57:00.952Z,96243.03
2022-10-28T09:59:29.905Z,96245.97
2022-10-28T10:01:58.600Z,96169.09
2022-10-28T10:04:31.342Z,96239.78
2022-10-28T10:07:06.923Z,96237.53
2022-10-28T10:09:37.425Z,96168.22
2022-10-28T10:12:09.810Z,96237.00
2022-10-28T10:14:42.303Z,96240.91
2022-10-28T10:17:16.854Z,96181.13
2022-10-28T10:20:01.363Z,96232.97
2022-10-28T10:22:33.014Z,96214.94
2022-10-28T10:25:01.710Z,96208.34
2022-10-28T10:27:32.164Z,96240.63
2022-10-28T10:30:00.811Z,96239.84
2022-10-28T10:32:32.405Z,96240.50
2022-10-28T10:35:07.396Z,96232.91
2022-10-28T10:37:38.141Z,96241.44
2022-10-28T10:40:20.590Z,96229.22
2022-10-28T10:43:09.677Z,96188.28
2022-10-28T10:45:38.422Z,96226.44
2022-10-28T10:48:15.187Z,96241.03
2022-10-28T10:50:45.803Z,96222.16
2022-10-28T10:53:27.315Z,96235.03
2022-10-28T10:56:00.868Z,96229.19
2022-10-28T10:58:30.961Z,96240.31
2022-10-28T11:01:02.425Z,96246.06
2022-10-28T11:03:36.947Z,96250.84
2022-10-28T11:06:24.797Z,96256.94
2022-10-28T11:09:00.863Z,96247.84
2022-10-28T11:11:37.201Z,96258.03
2022-10-28T11:14:08.832Z,96249.84
2022-10-28T11:16:49.606Z,96224.56
2022-10-28T11:19:23.146Z,96238.06
2022-10-28T11:22:05.864Z,96262.78
2022-10-28T11:24:56.588Z,96261.28
2022-10-28T11:27:36.145Z,96251.41
2022-10-28T11:30:06.410Z,96250.41
2022-10-28T11:33:01.421Z,96230.19
2022-10-28T11:35:50.299Z,96226.56
2022-10-28T11:38:33.681Z,96240.63
2022-10-28T11:41:15.159Z,96226.16
2022-10-28T11:43:55.262Z,96247.75
2022-10-28T11:46:36.857Z,96225.63
2022-10-28T11:49:32.430Z,96233.66
2022-10-28T11:52:13.037Z,96234.34
2022-10-28T11:54:55.433Z,96206.47
2022-10-28T11:57:44.390Z,96207.16
2022-10-28T12:00:29.125Z,96196.97
2022-10-28T12:03:13.609Z,96199.94
2022-10-28T12:05:48.997Z,96210.50
2022-10-28T12:08:30.754Z,96226.34
2022-10-28T12:11:12.368Z,96201.94
2022-10-28T12:13:49.611Z,96231.59
2022-10-28T12:16:26.209Z,96232.03
2022-10-28T12:18:59.069Z,96220.59
2022-10-28T12:24:07.471Z,96187.13
2022-10-28T12:26:40.809Z,96209.31
2022-10-28T12:29:19.195Z,96212.91
2022-10-28T12:31:51.538Z,96187.38
2022-10-28T12:34:26.406Z,96199.78
2022-10-28T12:37:01.781Z,96196.44
2022-10-28T12:39:36.195Z,96208.66
2022-10-28T12:42:12.556Z,96206.44
2022-10-28T12:44:43.514Z,96209.03
2022-10-28T12:47:20.721Z,96205.16
2022-10-28T12:50:04.259Z,96202.63
2022-10-28T12:52:39.818Z,96197.31
2022-10-28T12:55:20.413Z,96186.53
2022-10-28T12:57:55.674Z,96150.66
2022-10-28T13:00:29.542Z,96162.13
2022-10-28T13:03:02.971Z,96194.09
2022-10-28T13:05:38.954Z,96200.25
2022-10-28T13:08:49.290Z,96194.50
2022-10-28T13:12:07.277Z,96184.31
2022-10-28T13:14:56.455Z,96165.38
2022-10-28T13:17:41.520Z,96178.25
2022-10-28T13:20:18.799Z,96183.56
2022-10-28T13:22:56.344Z,96098.34
2022-10-28T13:25:50.361Z,96187.81
2022-10-28T13:28:22.202Z,96178.97
2022-10-28T13:30:55.438Z,96082.44
2022-10-28T13:33:27.006Z,96188.84
2022-10-28T13:35:56.915Z,96139.25
2022-10-28T13:38:28.285Z,96169.97
2022-10-28T13:41:31.009Z,96165.13
2022-10-28T13:44:27.325Z,96157.28
2022-10-28T13:47:30.360Z,96149.25
2022-10-28T13:50:33.638Z,96143.63
2022-10-28T13:53:42.291Z,96156.66
2022-10-28T13:56:43.770Z,96150.72
2022-10-28T13:59:24.386Z,96145.06
2022-10-28T14:02:02.261Z,96145.22
2022-10-28T14:04:38.835Z,96097.16
2022-10-28T14:07:30.438Z,96102.91
2022-10-28T14:10:19.088Z,96152.19
2022-10-28T14:12:51.558Z,96147.81
2022-10-28T14:15:24.721Z,96152.22
2022-10-28T14:18:04.915Z,96154.97
2022-10-28T14:20:59.211Z,96148.22
2022-10-28T14:24:08.609Z,96155.59
2022-10-28T14:27:09.522Z,96138.69
2022-10-28T14:29:45.658Z,96120.00
2022-10-28T14:32:43.697Z,96154.97
2022-10-28T14:35:22.333Z,96152.25
2022-10-28T14:38:20.449Z,96116.19
2022-10-28T14:40:52.215Z,96131.13
2022-10-28T14:43:36.130Z,96146.28
2022-10-28T14:46:11.907Z,96150.63
2022-10-28T14:48:48.505Z,96148.38
2022-10-28T14:51:20.994Z,96139.97
2022-10-28T14:53:49.872Z,96147.72
2022-10-28T14:59:01.049Z,96120.03
2022-10-28T15:01:48.713Z,96151.09
2022-10-28T15:04:17.759Z,96146.91
2022-10-28T15:06:48.137Z,96146.72
2022-10-28T15:09:22.485Z,96156.09
2022-10-28T15:11:56.236Z,96154.94
2022-10-28T15:14:37.676Z,96152.84
2022-10-28T15:17:14.297Z,96154.47
2022-10-28T15:19:42.909Z,96143.16
2022-10-28T15:22:22.701Z,96151.56
2022-10-28T15:24:55.671Z,96144.78
2022-10-28T15:27:27.677Z,96150.25
2022-10-28T15:29:56.957Z,96144.78
2022-10-28T15:32:31.499Z,96151.19
2022-10-28T15:35:00.598Z,96096.06
2022-10-28T15:37:31.370Z,96133.13
2022-10-28T15:40:21.107Z,96141.19
2022-10-28T15:42:57.077Z,96135.03
2022-10-28T15:45:27.777Z,96140.31
2022-10-28T15:47:57.751Z,96126.97
2022-10-28T15:50:32.273Z,96100.00
2022-10-28T15:53:42.112Z,96140.41
2022-10-28T15:56:26.131Z,96145.84
2022-10-28T15:59:21.479Z,96113.34
2022-10-28T16:01:49.960Z,96148.28
2022-10-28T16:04:45.490Z,96125.63
2022-10-28T16:07:14.066Z,96140.25
2022-10-28T16:09:47.396Z,96119.13
2022-10-28T16:12:17.333Z,96132.53
2022-10-28T16:14:50.781Z,96139.44
2022-10-28T16:17:23.294Z,96130.88
2022-10-28T16:19:55.241Z,96124.63
2022-10-28T16:22:26.082Z,96085.19
2022-10-28T16:24:55.696Z,96089.44
2022-10-28T16:27:25.985Z,96123.00
2022-10-28T16:29:55.867Z,96123.75
2022-10-28T16:32:30.867Z,96133.19
2022-10-28T16:35:01.493Z,96131.94
2022-10-28T16:37:31.802Z,96124.41
2022-10-28T16:40:00.190Z,96123.66
2022-10-28T16:42:28.931Z,96121.44
2022-10-28T16:44:58.956Z,96125.84
2022-10-28T16:47:28.068Z,96080.16
2022-10-28T16:49:57.564Z,96124.97
2022-10-28T16:52:28.749Z,96116.88
2022-10-28T16:54:58.146Z,96130.13
2022-10-28T16:57:27.674Z,96130.00
2022-10-28T16:59:56.386Z,96104.47
2022-10-28T17:02:30.072Z,96133.97
2022-10-28T17:04:59.854Z,96137.44
2022-10-28T17:07:29.396Z,96127.78
2022-10-28T17:09:58.708Z,96088.97
2022-10-28T17:12:29.452Z,96106.69
2022-10-28T17:14:57.850Z,96133.75
2022-10-28T17:17:27.867Z,96030.72
2022-10-28T17:19:56.374Z,96139.94
2022-10-28T17:22:24.914Z,96120.84
2022-10-28T17:24:55.078Z,96138.13
2022-10-28T17:27:23.873Z,96134.25
2022-10-28T17:29:52.554Z,96152.53
2022-10-28T17:32:21.173Z,96132.50
2022-10-28T17:34:52.558Z,96158.66
2022-10-28T17:37:21.201Z,96119.59
2022-10-28T17:42:17.987Z,96153.69
2022-10-28T17:44:56.589Z,96026.56
2022-10-28T17:47:46.566Z,95972.78
2022-10-28T17:50:16.884Z,95989.53
2022-10-28T17:52:46.396Z,96011.66
2022-10-28T17:55:15.338Z,96158.19
2022-10-28T17:57:45.056Z,96158.78
2022-10-28T18:00:14.948Z,96160.38
2022-10-28T18:02:43.735Z,96162.81
2022-10-28T18:05:12.562Z,96162.00
2022-10-28T18:07:42.826Z,96152.72
2022-10-28T18:10:11.665Z,96120.22
2022-10-28T18:12:40.474Z,96164.88
2022-10-28T18:15:11.162Z,96078.88
2022-10-28T18:17:40.010Z,96171.00
2022-10-28T18:20:10.115Z,96122.69
2022-10-28T18:22:38.905Z,96176.13
2022-10-28T18:25:10.110Z,96161.19
2022-10-28T18:27:38.549Z,96173.53
2022-10-28T18:30:08.687Z,96172.78
2022-10-28T18:32:37.166Z,96172.91
2022-10-28T18:35:06.123Z,96166.66
2022-10-28T18:37:36.525Z,96138.94
2022-10-28T18:40:06.929Z,96107.78
2022-10-28T18:42:38.178Z,96170.06
2022-10-28T18:45:09.157Z,95873.53
2022-10-28T18:47:39.275Z,96161.38
2022-10-28T18:50:10.152Z,96181.78
2022-10-28T18:52:40.600Z,96181.97
2022-10-28T18:55:11.804Z,96172.31
2022-10-28T18:57:43.208Z,96180.34
2022-10-28T19:00:17.973Z,96176.13
2022-10-28T19:02:47.863Z,96184.84
2022-10-28T19:05:17.971Z,96176.25
2022-10-28T19:07:47.808Z,96187.56
2022-10-28T19:10:18.025Z,96162.06
2022-10-28T19:12:53.174Z,96198.97
2022-10-28T19:15:23.156Z,96189.28
2022-10-28T19:17:55.355Z,96194.75
2022-10-28T19:20:26.013Z,96186.16
2022-10-28T19:22:55.361Z,96190.16
2022-10-28T19:25:25.309Z,96186.63
2022-10-28T19:27:57.521Z,96189.72
2022-10-28T19:30:26.799Z,96188.53
2022-10-28T19:32:56.729Z,96196.22
2022-10-28T19:35:27.656Z,96203.97
2022-10-28T19:37:57.614Z,96203.16
2022-10-28T19:40:27.333Z,96180.09
2022-10-28T19:42:58.976Z,96210.34
2022-10-28T19:45:29.094Z,96217.16
2022-10-28T19:48:02.431Z,96214.63
2022-10-28T19:50:32.148Z,96228.53
2022-10-28T19:53:02.039Z,96197.16
2022-10-28T19:55:32.247Z,96226.31
2022-10-28T19:58:03.617Z,96233.59
2022-10-28T20:00:33.420Z,96232.09
2022-10-28T20:03:03.330Z,96238.25
2022-10-28T20:05:34.740Z,96228.34
2022-10-28T20:08:04.941Z,96235.03
2022-10-28T20:10:35.216Z,96235.63
2022-10-28T20:13:06.524Z,96229.75
2022-10-28T20:15:36.810Z,96104.66
2022-10-28T20:18:06.711Z,96232.50
2022-10-28T20:20:37.877Z,96235.81
2022-10-28T20:23:07.595Z,96238.66
2022-10-28T20:25:37.262Z,96231.78
2022-10-28T20:28:08.770Z,96234.03
2022-10-28T20:30:39.015Z,96230.00
2022-10-28T20:33:09.100Z,96229.19
2022-10-28T20:35:38.711Z,96228.47
2022-10-28T20:40:40.400Z,96216.66
2022-10-28T20:43:10.270Z,96186.28
2022-10-28T20:45:39.950Z,96222.81
2022-10-28T20:48:08.871Z,96217.97
2022-10-28T20:50:37.266Z,96222.91
2022-10-28T20:53:05.767Z,96225.13
2022-10-28T20:55:34.260Z,96230.38
2022-10-28T20:58:02.691Z,96231.50
2022-10-28T21:00:32.689Z,96176.75
2022-10-28T21:03:01.711Z,96235.09
2022-10-28T21:05:32.469Z,96235.00
2022-10-28T21:08:01.300Z,96241.84
2022-10-28T21:10:29.846Z,96254.66
2022-10-28T21:12:58.546Z,96225.31
2022-10-28T21:15:26.882Z,96231.56
2022-10-28T21:17:57.063Z,96201.06
2022-10-28T21:20:25.613Z,96190.34
2022-10-28T21:22:54.294Z,96226.72
2022-10-28T21:25:23.166Z,96229.44
2022-10-28T21:27:51.822Z,96189.88
2022-10-28T21:30:21.049Z,96225.06
2022-10-28T21:32:49.474Z,96226.53
2022-10-28T21:35:19.610Z,96202.94
2022-10-28T21:37:48.086Z,96239.13
2022-10-28T21:40:16.734Z,96239.41
2022-10-28T21:42:50.047Z,96188.50
2022-10-28T21:45:19.309Z,96243.00
2022-10-28T21:47:48.480Z,96235.44
2022-10-28T21:50:18.477Z,96172.16
2022-10-28T21:52:47.261Z,96238.75
2022-10-28T21:55:26.697Z,96240.97
2022-10-28T21:58:05.453Z,96262.53
2022-10-28T22:00:33.813Z,96127.69
2022-10-28T22:03:02.248Z,96245.41
2022-10-28T22:05:32.505Z,96242.19
2022-10-28T22:08:03.197Z,96248.72
2022-10-28T22:10:33.657Z,96250.34
2022-10-28T22:13:02.415Z,96234.28
2022-10-28T22:15:30.838Z,96163.22
2022-10-28T22:17:59.223Z,96239.44
2022-10-28T22:20:27.666Z,96253.06
2022-10-28T22:22:57.779Z,96248.13
2022-10-28T22:25:26.538Z,96244.59
2022-10-28T22:27:55.298Z,96249.75
2022-10-28T22:30:23.602Z,96245.41
2022-10-28T22:32:52.190Z,96247.03
2022-10-28T22:35:20.806Z,96252.75
2022-10-28T22:37:49.129Z,96262.22
2022-10-28T22:40:19.124Z,96260.31
2022-10-28T22:42:47.487Z,96257.09
2022-10-28T22:45:16.202Z,96264.16
2022-10-28T22:47:44.567Z,96260.91
2022-10-28T22:50:12.964Z,96245.13
2022-10-28T22:52:41.358Z,96246.22
2022-10-28T22:55:10.576Z,96254.66
2022-10-28T22:57:41.236Z,96246.50
2022-10-28T23:00:11.044Z,96256.06
2022-10-28T23:02:39.907Z,96263.41
2022-10-28T23:05:09.625Z,96255.88
2022-10-28T23:07:37.925Z,96259.19
2022-10-28T23:10:07.310Z,96055.13
2022-10-28T23:12:36.030Z,96271.78
2022-10-28T23:15:06.772Z,96256.63
2022-10-28T23:17:35.198Z,96187.50
2022-10-28T23:20:03.807Z,96242.84
2022-10-28T23:22:32.236Z,96273.84
2022-10-28T23:25:00.566Z,96242.63
2022-10-28T23:27:28.866Z,96265.16
2022-10-28T23:29:57.286Z,96195.13
2022-10-28T23:32:27.433Z,96272.00
2022-10-28T23:34:55.774Z,96270.97
2022-10-28T23:37:24.162Z,96273.50
2022-10-28T23:39:52.541Z,96277.63
2022-10-28T23:42:21.230Z,96170.47
2022-10-28T23:44:49.557Z,96279.91
2022-10-28T23:47:18.114Z,96275.72
2022-10-28T23:49:47.888Z,96281.34
2022-10-28T23:52:16.311Z,96275.41
2022-10-28T23:54:45.043Z,96279.84
2022-10-28T23:57:13.410Z,96273.63
2022-10-28T23:59:41.797Z,96269.91
